sensor_id;sensor_type;location;lat;lon;timestamp;P1;durP1;ratioP1;P2;durP2;ratioP2
36663;SDS011;53333;51.976;20.144;2024-03-23T00:54:35;40.67;;;18.58;;
36663;SDS011;53333;51.976;20.144;2024-03-23T00:57:06;35.47;;;19.27;;
36663;SDS011;53333;51.976;20.144;2024-03-23T00:59:37;39.22;;;18.15;;
36663;SDS011;53333;51.976;20.144;2024-03-23T01:02:09;34.05;;;18.23;;
36663;SDS011;53333;51.976;20.144;2024-03-23T01:04:40;37.67;;;18.02;;
36663;SDS011;53333;51.976;20.144;2024-03-23T01:07:11;32.25;;;17.80;;
36663;SDS011;53333;51.976;20.144;2024-03-23T01:09:44;33.22;;;18.50;;
36663;SDS011;53333;51.976;20.144;2024-03-23T01:12:15;34.08;;;18.08;;
36663;SDS011;53333;51.976;20.144;2024-03-23T01:14:46;33.05;;;17.15;;
36663;SDS011;53333;51.976;20.144;2024-03-23T01:17:18;33.42;;;18.02;;
36663;SDS011;53333;51.976;20.144;2024-03-23T01:19:49;36.95;;;18.90;;
36663;SDS011;53333;51.976;20.144;2024-03-23T01:22:20;34.53;;;18.13;;
36663;SDS011;53333;51.976;20.144;2024-03-23T01:24:53;32.55;;;17.63;;
36663;SDS011;53333;51.976;20.144;2024-03-23T01:27:24;33.67;;;18.42;;
36663;SDS011;53333;51.976;20.144;2024-03-23T01:29:55;33.90;;;18.85;;
36663;SDS011;53333;51.976;20.144;2024-03-23T01:32:27;43.47;;;21.10;;
36663;SDS011;53333;51.976;20.144;2024-03-23T01:34:58;43.45;;;21.13;;
36663;SDS011;53333;51.976;20.144;2024-03-23T01:37:29;41.15;;;21.23;;
36663;SDS011;53333;51.976;20.144;2024-03-23T01:40:02;40.38;;;19.75;;
36663;SDS011;53333;51.976;20.144;2024-03-23T01:42:34;37.33;;;19.05;;
36663;SDS011;53333;51.976;20.144;2024-03-23T01:45:06;39.55;;;20.48;;
36663;SDS011;53333;51.976;20.144;2024-03-23T01:47:40;32.83;;;17.95;;
36663;SDS011;53333;51.976;20.144;2024-03-23T01:50:10;39.72;;;21.08;;
36663;SDS011;53333;51.976;20.144;2024-03-23T01:52:42;35.90;;;19.77;;
36663;SDS011;53333;51.976;20.144;2024-03-23T01:55:14;41.53;;;19.42;;
36663;SDS011;53333;51.976;20.144;2024-03-23T01:57:46;38.33;;;18.77;;
36663;SDS011;53333;51.976;20.144;2024-03-23T02:00:17;41.20;;;19.60;;
36663;SDS011;53333;51.976;20.144;2024-03-23T02:02:49;36.78;;;20.05;;
36663;SDS011;53333;51.976;20.144;2024-03-23T02:05:20;42.20;;;20.38;;
36663;SDS011;53333;51.976;20.144;2024-03-23T02:07:52;40.40;;;20.83;;
36663;SDS011;53333;51.976;20.144;2024-03-23T02:10:24;40.50;;;20.75;;
36663;SDS011;53333;51.976;20.144;2024-03-23T02:12:56;45.53;;;21.00;;
36663;SDS011;53333;51.976;20.144;2024-03-23T02:15:26;42.60;;;21.85;;
36663;SDS011;53333;51.976;20.144;2024-03-23T02:17:58;46.45;;;22.65;;
36663;SDS011;53333;51.976;20.144;2024-03-23T02:20:29;43.85;;;21.55;;
36663;SDS011;53333;51.976;20.144;2024-03-23T02:23:02;43.92;;;21.85;;
36663;SDS011;53333;51.976;20.144;2024-03-23T02:25:33;46.20;;;22.20;;
36663;SDS011;53333;51.976;20.144;2024-03-23T02:28:05;46.17;;;22.17;;
36663;SDS011;53333;51.976;20.144;2024-03-23T02:30:36;48.08;;;24.23;;
36663;SDS011;53333;51.976;20.144;2024-03-23T02:33:07;47.55;;;23.67;;
36663;SDS011;53333;51.976;20.144;2024-03-23T02:35:39;51.35;;;23.65;;
36663;SDS011;53333;51.976;20.144;2024-03-23T02:38:12;45.72;;;23.13;;
36663;SDS011;53333;51.976;20.144;2024-03-23T02:40:42;51.08;;;23.67;;
36663;SDS011;53333;51.976;20.144;2024-03-23T02:43:14;45.80;;;22.15;;
36663;SDS011;53333;51.976;20.144;2024-03-23T02:45:45;42.65;;;22.58;;
36663;SDS011;53333;51.976;20.144;2024-03-23T02:48:17;46.70;;;22.60;;
36663;SDS011;53333;51.976;20.144;2024-03-23T02:50:48;47.60;;;23.92;;
36663;SDS011;53333;51.976;20.144;2024-03-23T02:53:21;49.88;;;22.75;;
36663;SDS011;53333;51.976;20.144;2024-03-23T02:55:52;44.30;;;23.20;;
36663;SDS011;53333;51.976;20.144;2024-03-23T02:58:26;42.85;;;22.80;;
36663;SDS011;53333;51.976;20.144;2024-03-23T03:00:57;46.00;;;23.02;;
36663;SDS011;53333;51.976;20.144;2024-03-23T03:03:29;41.38;;;22.77;;
36663;SDS011;53333;51.976;20.144;2024-03-23T03:06:00;41.72;;;23.30;;
36663;SDS011;53333;51.976;20.144;2024-03-23T03:08:33;45.28;;;22.73;;
36663;SDS011;53333;51.976;20.144;2024-03-23T03:11:03;39.20;;;22.75;;
36663;SDS011;53333;51.976;20.144;2024-03-23T03:13:35;40.38;;;23.02;;
36663;SDS011;53333;51.976;20.144;2024-03-23T03:16:08;41.13;;;22.65;;
36663;SDS011;53333;51.976;20.144;2024-03-23T03:21:11;43.22;;;21.38;;
36663;SDS011;53333;51.976;20.144;2024-03-23T03:23:44;43.78;;;21.98;;
36663;SDS011;53333;51.976;20.144;2024-03-23T03:26:15;48.13;;;24.17;;
36663;SDS011;53333;51.976;20.144;2024-03-23T03:28:47;45.70;;;23.00;;
36663;SDS011;53333;51.976;20.144;2024-03-23T03:31:19;47.10;;;23.02;;
36663;SDS011;53333;51.976;20.144;2024-03-23T03:33:51;43.97;;;22.33;;
36663;SDS011;53333;51.976;20.144;2024-03-23T03:36:22;47.10;;;22.75;;
36663;SDS011;53333;51.976;20.144;2024-03-23T03:38:55;49.38;;;26.15;;
36663;SDS011;53333;51.976;20.144;2024-03-23T03:41:26;49.45;;;25.10;;
36663;SDS011;53333;51.976;20.144;2024-03-23T03:43:57;49.53;;;23.65;;
36663;SDS011;53333;51.976;20.144;2024-03-23T03:46:32;46.88;;;24.02;;
36663;SDS011;53333;51.976;20.144;2024-03-23T03:49:04;48.65;;;22.65;;
36663;SDS011;53333;51.976;20.144;2024-03-23T03:51:35;48.60;;;24.63;;
36663;SDS011;53333;51.976;20.144;2024-03-23T03:54:09;49.15;;;24.42;;
36663;SDS011;53333;51.976;20.144;2024-03-23T03:56:39;49.08;;;24.50;;
36663;SDS011;53333;51.976;20.144;2024-03-23T03:59:11;47.38;;;24.83;;
36663;SDS011;53333;51.976;20.144;2024-03-23T04:01:42;49.53;;;24.88;;
36663;SDS011;53333;51.976;20.144;2024-03-23T04:04:14;44.65;;;24.25;;
36663;SDS011;53333;51.976;20.144;2024-03-23T04:06:46;45.53;;;22.75;;
36663;SDS011;53333;51.976;20.144;2024-03-23T04:09:20;48.28;;;24.75;;
36663;SDS011;53333;51.976;20.144;2024-03-23T04:11:51;48.38;;;24.70;;
36663;SDS011;53333;51.976;20.144;2024-03-23T04:14:22;46.22;;;24.20;;
36663;SDS011;53333;51.976;20.144;2024-03-23T04:16:53;52.10;;;26.05;;
36663;SDS011;53333;51.976;20.144;2024-03-23T04:19:26;52.22;;;24.58;;
36663;SDS011;53333;51.976;20.144;2024-03-23T04:21:57;51.17;;;25.25;;
36663;SDS011;53333;51.976;20.144;2024-03-23T04:24:30;47.90;;;24.70;;
36663;SDS011;53333;51.976;20.144;2024-03-23T04:27:01;47.47;;;24.48;;
36663;SDS011;53333;51.976;20.144;2024-03-23T04:29:33;46.65;;;24.70;;
36663;SDS011;53333;51.976;20.144;2024-03-23T04:32:04;48.78;;;24.75;;
36663;SDS011;53333;51.976;20.144;2024-03-23T04:34:37;48.17;;;23.95;;
36663;SDS011;53333;51.976;20.144;2024-03-23T04:37:08;50.67;;;24.60;;
36663;SDS011;53333;51.976;20.144;2024-03-23T04:39:41;45.30;;;25.25;;
36663;SDS011;53333;51.976;20.144;2024-03-23T04:42:14;44.92;;;22.95;;
36663;SDS011;53333;51.976;20.144;2024-03-23T04:44:46;46.65;;;24.95;;
36663;SDS011;53333;51.976;20.144;2024-03-23T04:47:18;42.83;;;22.95;;
36663;SDS011;53333;51.976;20.144;2024-03-23T04:49:49;43.60;;;23.15;;
36663;SDS011;53333;51.976;20.144;2024-03-23T04:52:23;44.72;;;24.55;;
36663;SDS011;53333;51.976;20.144;2024-03-23T04:54:59;44.80;;;23.83;;
36663;SDS011;53333;51.976;20.144;2024-03-23T04:57:31;45.97;;;24.45;;
36663;SDS011;53333;51.976;20.144;2024-03-23T05:00:01;43.13;;;22.35;;
36663;SDS011;53333;51.976;20.144;2024-03-23T05:02:35;39.88;;;21.65;;
36663;SDS011;53333;51.976;20.144;2024-03-23T05:05:05;47.30;;;23.45;;
36663;SDS011;53333;51.976;20.144;2024-03-23T05:07:37;43.78;;;22.67;;
36663;SDS011;53333;51.976;20.144;2024-03-23T05:10:10;39.53;;;21.90;;
36663;SDS011;53333;51.976;20.144;2024-03-23T05:12:43;40.20;;;21.80;;
36663;SDS011;53333;51.976;20.144;2024-03-23T05:15:15;43.25;;;23.45;;
36663;SDS011;53333;51.976;20.144;2024-03-23T05:17:47;43.72;;;22.02;;
36663;SDS011;53333;51.976;20.144;2024-03-23T05:20:19;47.50;;;23.83;;
36663;SDS011;53333;51.976;20.144;2024-03-23T05:22:50;41.22;;;22.27;;
36663;SDS011;53333;51.976;20.144;2024-03-23T05:25:23;41.28;;;23.17;;
36663;SDS011;53333;51.976;20.144;2024-03-23T05:27:54;43.60;;;22.00;;
36663;SDS011;53333;51.976;20.144;2024-03-23T05:30:25;49.88;;;23.08;;
36663;SDS011;53333;51.976;20.144;2024-03-23T05:32:56;57.58;;;30.58;;
36663;SDS011;53333;51.976;20.144;2024-03-23T05:35:28;58.38;;;30.20;;
36663;SDS011;53333;51.976;20.144;2024-03-23T05:37:59;42.90;;;22.15;;
36663;SDS011;53333;51.976;20.144;2024-03-23T05:40:32;46.20;;;22.42;;
36663;SDS011;53333;51.976;20.144;2024-03-23T05:43:03;48.80;;;24.08;;
36663;SDS011;53333;51.976;20.144;2024-03-23T05:45:35;41.47;;;22.52;;
36663;SDS011;53333;51.976;20.144;2024-03-23T05:48:06;52.55;;;27.83;;
36663;SDS011;53333;51.976;20.144;2024-03-23T05:50:38;40.80;;;23.13;;
36663;SDS011;53333;51.976;20.144;2024-03-23T05:53:09;43.30;;;23.23;;
36663;SDS011;53333;51.976;20.144;2024-03-23T05:55:42;61.33;;;31.02;;
36663;SDS011;53333;51.976;20.144;2024-03-23T05:58:14;58.22;;;32.10;;
36663;SDS011;53333;51.976;20.144;2024-03-23T06:00:46;47.92;;;26.48;;
36663;SDS011;53333;51.976;20.144;2024-03-23T06:03:17;41.45;;;21.88;;
36663;SDS011;53333;51.976;20.144;2024-03-23T06:05:49;42.22;;;23.02;;
36663;SDS011;53333;51.976;20.144;2024-03-23T06:08:20;43.08;;;21.77;;
36663;SDS011;53333;51.976;20.144;2024-03-23T06:10:53;45.40;;;25.13;;
36663;SDS011;53333;51.976;20.144;2024-03-23T06:13:24;38.65;;;20.85;;
36663;SDS011;53333;51.976;20.144;2024-03-23T06:16:00;81.53;;;44.33;;
36663;SDS011;53333;51.976;20.144;2024-03-23T06:18:31;65.72;;;34.65;;
36663;SDS011;53333;51.976;20.144;2024-03-23T06:21:03;43.35;;;22.58;;
36663;SDS011;53333;51.976;20.144;2024-03-23T06:23:34;35.67;;;19.58;;
36663;SDS011;53333;51.976;20.144;2024-03-23T06:26:07;37.28;;;19.15;;
36663;SDS011;53333;51.976;20.144;2024-03-23T06:28:38;38.63;;;19.17;;
36663;SDS011;53333;51.976;20.144;2024-03-23T06:31:10;39.17;;;19.05;;
36663;SDS011;53333;51.976;20.144;2024-03-23T06:33:41;36.78;;;22.52;;
36663;SDS011;53333;51.976;20.144;2024-03-23T06:36:13;34.17;;;19.85;;
36663;SDS011;53333;51.976;20.144;2024-03-23T06:38:44;33.33;;;17.40;;
36663;SDS011;53333;51.976;20.144;2024-03-23T06:41:17;36.97;;;19.10;;
36663;SDS011;53333;51.976;20.144;2024-03-23T06:43:48;31.88;;;17.70;;
36663;SDS011;53333;51.976;20.144;2024-03-23T06:46:20;33.15;;;17.35;;
36663;SDS011;53333;51.976;20.144;2024-03-23T06:48:51;30.13;;;17.38;;
36663;SDS011;53333;51.976;20.144;2024-03-23T06:51:22;33.42;;;18.63;;
36663;SDS011;53333;51.976;20.144;2024-03-23T06:53:53;31.88;;;17.65;;
36663;SDS011;53333;51.976;20.144;2024-03-23T06:56:26;28.95;;;16.13;;
36663;SDS011;53333;51.976;20.144;2024-03-23T06:58:57;28.75;;;15.85;;
36663;SDS011;53333;51.976;20.144;2024-03-23T07:01:29;38.33;;;20.42;;
36663;SDS011;53333;51.976;20.144;2024-03-23T07:04:00;28.23;;;15.18;;
36663;SDS011;53333;51.976;20.144;2024-03-23T07:06:32;29.23;;;16.85;;
36663;SDS011;53333;51.976;20.144;2024-03-23T07:09:02;38.55;;;22.10;;
36663;SDS011;53333;51.976;20.144;2024-03-23T07:11:36;35.13;;;19.70;;
36663;SDS011;53333;51.976;20.144;2024-03-23T07:14:06;25.63;;;15.07;;
36663;SDS011;53333;51.976;20.144;2024-03-23T07:16:39;35.53;;;16.45;;
36663;SDS011;53333;51.976;20.144;2024-03-23T07:19:10;29.42;;;15.60;;
36663;SDS011;53333;51.976;20.144;2024-03-23T07:21:41;26.67;;;14.38;;
36663;SDS011;53333;51.976;20.144;2024-03-23T07:24:12;30.55;;;15.75;;
36663;SDS011;53333;51.976;20.144;2024-03-23T07:26:46;29.98;;;15.45;;
36663;SDS011;53333;51.976;20.144;2024-03-23T07:29:17;34.83;;;19.38;;
36663;SDS011;53333;51.976;20.144;2024-03-23T07:31:49;31.35;;;17.20;;
36663;SDS011;53333;51.976;20.144;2024-03-23T07:34:20;30.80;;;17.77;;
36663;SDS011;53333;51.976;20.144;2024-03-23T07:36:52;25.92;;;14.57;;
36663;SDS011;53333;51.976;20.144;2024-03-23T07:39:22;25.27;;;14.70;;
36663;SDS011;53333;51.976;20.144;2024-03-23T07:41:56;25.05;;;14.27;;
36663;SDS011;53333;51.976;20.144;2024-03-23T07:44:27;29.67;;;16.05;;
36663;SDS011;53333;51.976;20.144;2024-03-23T07:47:00;29.08;;;16.08;;
36663;SDS011;53333;51.976;20.144;2024-03-23T07:49:31;24.55;;;14.50;;
36663;SDS011;53333;51.976;20.144;2024-03-23T07:52:03;27.27;;;16.73;;
36663;SDS011;53333;51.976;20.144;2024-03-23T07:54:34;25.85;;;15.25;;
36663;SDS011;53333;51.976;20.144;2024-03-23T07:57:07;25.75;;;14.35;;
36663;SDS011;53333;51.976;20.144;2024-03-23T07:59:38;25.45;;;14.15;;
36663;SDS011;53333;51.976;20.144;2024-03-23T08:02:10;23.83;;;13.75;;
36663;SDS011;53333;51.976;20.144;2024-03-23T08:04:41;19.95;;;12.25;;
36663;SDS011;53333;51.976;20.144;2024-03-23T08:07:13;21.88;;;13.35;;
36663;SDS011;53333;51.976;20.144;2024-03-23T08:09:44;21.55;;;13.70;;
36663;SDS011;53333;51.976;20.144;2024-03-23T08:12:17;21.58;;;13.57;;
36663;SDS011;53333;51.976;20.144;2024-03-23T08:14:48;20.15;;;13.25;;
36663;SDS011;53333;51.976;20.144;2024-03-23T08:17:20;25.65;;;15.60;;
36663;SDS011;53333;51.976;20.144;2024-03-23T08:19:50;21.10;;;12.48;;
36663;SDS011;53333;51.976;20.144;2024-03-23T08:22:23;20.00;;;11.43;;
36663;SDS011;53333;51.976;20.144;2024-03-23T08:24:54;20.75;;;11.95;;
36663;SDS011;53333;51.976;20.144;2024-03-23T08:27:27;19.65;;;13.02;;
36663;SDS011;53333;51.976;20.144;2024-03-23T08:29:57;19.60;;;12.25;;
36663;SDS011;53333;51.976;20.144;2024-03-23T08:32:29;17.55;;;11.73;;
36663;SDS011;53333;51.976;20.144;2024-03-23T08:35:00;41.97;;;23.85;;
36663;SDS011;53333;51.976;20.144;2024-03-23T08:37:32;18.98;;;11.73;;
36663;SDS011;53333;51.976;20.144;2024-03-23T08:40:03;16.25;;;10.82;;
36663;SDS011;53333;51.976;20.144;2024-03-23T08:42:36;15.23;;;10.73;;
36663;SDS011;53333;51.976;20.144;2024-03-23T08:45:07;15.55;;;10.30;;
36663;SDS011;53333;51.976;20.144;2024-03-23T08:47:39;15.07;;;9.40;;
36663;SDS011;53333;51.976;20.144;2024-03-23T08:50:10;16.63;;;9.80;;
36663;SDS011;53333;51.976;20.144;2024-03-23T08:52:42;14.25;;;10.45;;
36663;SDS011;53333;51.976;20.144;2024-03-23T08:55:13;14.07;;;9.77;;
36663;SDS011;53333;51.976;20.144;2024-03-23T08:57:46;15.70;;;9.52;;
36663;SDS011;53333;51.976;20.144;2024-03-23T09:00:17;14.02;;;9.75;;
36663;SDS011;53333;51.976;20.144;2024-03-23T09:02:49;15.50;;;9.82;;
36663;SDS011;53333;51.976;20.144;2024-03-23T09:05:20;12.50;;;9.55;;
36663;SDS011;53333;51.976;20.144;2024-03-23T09:07:52;14.68;;;9.68;;
36663;SDS011;53333;51.976;20.144;2024-03-23T09:10:23;15.70;;;10.95;;
36663;SDS011;53333;51.976;20.144;2024-03-23T09:12:56;14.57;;;10.10;;
36663;SDS011;53333;51.976;20.144;2024-03-23T09:15:27;12.07;;;9.35;;
36663;SDS011;53333;51.976;20.144;2024-03-23T09:17:59;14.88;;;9.32;;
36663;SDS011;53333;51.976;20.144;2024-03-23T09:20:32;15.43;;;10.15;;
36663;SDS011;53333;51.976;20.144;2024-03-23T09:23:04;14.45;;;9.68;;
36663;SDS011;53333;51.976;20.144;2024-03-23T09:25:38;12.23;;;8.82;;
36663;SDS011;53333;51.976;20.144;2024-03-23T09:28:11;13.15;;;9.25;;
36663;SDS011;53333;51.976;20.144;2024-03-23T09:30:42;13.07;;;9.35;;
36663;SDS011;53333;51.976;20.144;2024-03-23T09:33:13;12.35;;;9.65;;
36663;SDS011;53333;51.976;20.144;2024-03-23T09:35:45;12.75;;;8.93;;
36663;SDS011;53333;51.976;20.144;2024-03-23T09:40:48;13.20;;;9.27;;
36663;SDS011;53333;51.976;20.144;2024-03-23T09:43:25;11.90;;;9.57;;
36663;SDS011;53333;51.976;20.144;2024-03-23T09:48:28;13.20;;;9.63;;
36663;SDS011;53333;51.976;20.144;2024-03-23T09:50:59;16.50;;;9.68;;
36663;SDS011;53333;51.976;20.144;2024-03-23T09:53:31;14.02;;;10.60;;
36663;SDS011;53333;51.976;20.144;2024-03-23T09:56:03;11.35;;;9.18;;
36663;SDS011;53333;51.976;20.144;2024-03-23T10:01:07;10.80;;;9.20;;
36663;SDS011;53333;51.976;20.144;2024-03-23T10:03:42;12.20;;;8.88;;
36663;SDS011;53333;51.976;20.144;2024-03-23T10:06:14;11.63;;;8.68;;
36663;SDS011;53333;51.976;20.144;2024-03-23T10:08:52;12.85;;;9.05;;
36663;SDS011;53333;51.976;20.144;2024-03-23T10:13:58;11.07;;;8.30;;
36663;SDS011;53333;51.976;20.144;2024-03-23T10:19:01;9.87;;;8.30;;
36663;SDS011;53333;51.976;20.144;2024-03-23T10:21:32;11.10;;;9.80;;
36663;SDS011;53333;51.976;20.144;2024-03-23T10:24:07;12.40;;;8.65;;
36663;SDS011;53333;51.976;20.144;2024-03-23T10:26:40;13.48;;;9.40;;
36663;SDS011;53333;51.976;20.144;2024-03-23T10:29:12;12.80;;;10.50;;
36663;SDS011;53333;51.976;20.144;2024-03-23T10:31:47;11.65;;;9.25;;
36663;SDS011;53333;51.976;20.144;2024-03-23T10:36:56;10.50;;;8.93;;
36663;SDS011;53333;51.976;20.144;2024-03-23T10:39:29;11.93;;;10.13;;
36663;SDS011;53333;51.976;20.144;2024-03-23T10:42:04;13.50;;;10.50;;
36663;SDS011;53333;51.976;20.144;2024-03-23T10:44:37;14.13;;;9.65;;
36663;SDS011;53333;51.976;20.144;2024-03-23T10:47:09;10.57;;;9.48;;
36663;SDS011;53333;51.976;20.144;2024-03-23T10:49:40;12.07;;;9.05;;
36663;SDS011;53333;51.976;20.144;2024-03-23T10:52:12;18.20;;;10.30;;
36663;SDS011;53333;51.976;20.144;2024-03-23T10:54:43;29.25;;;12.38;;
36663;SDS011;53333;51.976;20.144;2024-03-23T10:57:21;20.85;;;10.88;;
36663;SDS011;53333;51.976;20.144;2024-03-23T10:59:58;11.30;;;9.30;;
36663;SDS011;53333;51.976;20.144;2024-03-23T11:02:30;12.02;;;9.68;;
36663;SDS011;53333;51.976;20.144;2024-03-23T11:05:01;11.63;;;9.68;;
36663;SDS011;53333;51.976;20.144;2024-03-23T11:07:33;15.10;;;10.00;;
36663;SDS011;53333;51.976;20.144;2024-03-23T11:10:04;13.30;;;9.23;;
36663;SDS011;53333;51.976;20.144;2024-03-23T11:12:56;12.07;;;9.40;;
36663;SDS011;53333;51.976;20.144;2024-03-23T11:15:28;10.60;;;9.50;;
36663;SDS011;53333;51.976;20.144;2024-03-23T11:18:05;10.93;;;9.35;;
36663;SDS011;53333;51.976;20.144;2024-03-23T11:20:38;11.93;;;9.52;;
36663;SDS011;53333;51.976;20.144;2024-03-23T11:23:15;9.45;;;8.32;;
36663;SDS011;53333;51.976;20.144;2024-03-23T11:25:57;12.95;;;10.25;;
36663;SDS011;53333;51.976;20.144;2024-03-23T11:28:30;11.32;;;8.27;;
36663;SDS011;53333;51.976;20.144;2024-03-23T11:31:02;12.27;;;8.30;;
36663;SDS011;53333;51.976;20.144;2024-03-23T11:33:41;11.02;;;8.88;;
36663;SDS011;53333;51.976;20.144;2024-03-23T11:36:18;10.05;;;7.80;;
36663;SDS011;53333;51.976;20.144;2024-03-23T11:38:50;8.90;;;7.55;;
36663;SDS011;53333;51.976;20.144;2024-03-23T11:41:21;9.43;;;7.53;;
36663;SDS011;53333;51.976;20.144;2024-03-23T11:43:55;11.00;;;7.88;;
36663;SDS011;53333;51.976;20.144;2024-03-23T11:46:56;9.55;;;7.85;;
36663;SDS011;53333;51.976;20.144;2024-03-23T11:49:39;14.18;;;10.73;;
36663;SDS011;53333;51.976;20.144;2024-03-23T11:52:11;14.52;;;8.70;;
36663;SDS011;53333;51.976;20.144;2024-03-23T11:54:43;10.60;;;8.00;;
36663;SDS011;53333;51.976;20.144;2024-03-23T11:57:13;12.70;;;8.88;;
36663;SDS011;53333;51.976;20.144;2024-03-23T11:59:45;11.90;;;7.70;;
36663;SDS011;53333;51.976;20.144;2024-03-23T12:02:17;10.60;;;7.97;;
36663;SDS011;53333;51.976;20.144;2024-03-23T12:04:50;13.35;;;7.53;;
36663;SDS011;53333;51.976;20.144;2024-03-23T12:07:21;10.63;;;7.25;;
36663;SDS011;53333;51.976;20.144;2024-03-23T12:10:04;9.60;;;7.57;;
36663;SDS011;53333;51.976;20.144;2024-03-23T12:12:36;10.18;;;7.25;;
36663;SDS011;53333;51.976;20.144;2024-03-23T12:15:08;12.57;;;7.38;;
36663;SDS011;53333;51.976;20.144;2024-03-23T12:17:41;12.05;;;7.70;;
36663;SDS011;53333;51.976;20.144;2024-03-23T12:20:14;11.05;;;7.47;;
36663;SDS011;53333;51.976;20.144;2024-03-23T12:22:45;14.70;;;7.85;;
36663;SDS011;53333;51.976;20.144;2024-03-23T12:25:17;9.65;;;7.03;;
36663;SDS011;53333;51.976;20.144;2024-03-23T12:27:48;12.65;;;7.45;;
36663;SDS011;53333;51.976;20.144;2024-03-23T12:30:20;11.77;;;7.68;;
36663;SDS011;53333;51.976;20.144;2024-03-23T12:32:52;10.40;;;7.90;;
36663;SDS011;53333;51.976;20.144;2024-03-23T12:35:24;14.13;;;8.32;;
36663;SDS011;53333;51.976;20.144;2024-03-23T12:38:20;22.08;;;12.38;;
36663;SDS011;53333;51.976;20.144;2024-03-23T12:40:52;18.15;;;10.80;;
36663;SDS011;53333;51.976;20.144;2024-03-23T12:43:23;17.35;;;10.95;;
36663;SDS011;53333;51.976;20.144;2024-03-23T12:45:55;12.77;;;9.48;;
36663;SDS011;53333;51.976;20.144;2024-03-23T12:48:27;12.90;;;8.13;;
36663;SDS011;53333;51.976;20.144;2024-03-23T12:50:58;12.50;;;8.35;;
36663;SDS011;53333;51.976;20.144;2024-03-23T12:53:29;13.57;;;9.68;;
36663;SDS011;53333;51.976;20.144;2024-03-23T12:56:01;12.10;;;8.70;;
36663;SDS011;53333;51.976;20.144;2024-03-23T12:58:33;13.38;;;9.02;;
36663;SDS011;53333;51.976;20.144;2024-03-23T13:01:05;13.63;;;8.48;;
36663;SDS011;53333;51.976;20.144;2024-03-23T13:03:43;12.50;;;8.80;;
36663;SDS011;53333;51.976;20.144;2024-03-23T13:06:15;12.23;;;8.38;;
36663;SDS011;53333;51.976;20.144;2024-03-23T13:08:46;12.43;;;8.70;;
36663;SDS011;53333;51.976;20.144;2024-03-23T13:11:20;14.50;;;9.65;;
36663;SDS011;53333;51.976;20.144;2024-03-23T13:13:51;12.65;;;8.07;;
36663;SDS011;53333;51.976;20.144;2024-03-23T13:16:22;12.52;;;8.23;;
36663;SDS011;53333;51.976;20.144;2024-03-23T13:18:56;12.35;;;8.10;;
36663;SDS011;53333;51.976;20.144;2024-03-23T13:21:27;20.13;;;8.77;;
36663;SDS011;53333;51.976;20.144;2024-03-23T13:23:59;13.68;;;8.38;;
36663;SDS011;53333;51.976;20.144;2024-03-23T13:26:30;16.67;;;8.00;;
36663;SDS011;53333;51.976;20.144;2024-03-23T13:29:02;19.60;;;9.70;;
36663;SDS011;53333;51.976;20.144;2024-03-23T13:31:33;14.25;;;9.65;;
36663;SDS011;53333;51.976;20.144;2024-03-23T13:34:13;23.42;;;9.40;;
36663;SDS011;53333;51.976;20.144;2024-03-23T13:36:49;24.70;;;11.65;;
36663;SDS011;53333;51.976;20.144;2024-03-23T13:39:22;17.17;;;9.90;;
36663;SDS011;53333;51.976;20.144;2024-03-23T13:41:53;19.98;;;10.65;;
36663;SDS011;53333;51.976;20.144;2024-03-23T13:44:26;20.58;;;9.43;;
36663;SDS011;53333;51.976;20.144;2024-03-23T13:46:57;17.70;;;12.00;;
36663;SDS011;53333;51.976;20.144;2024-03-23T13:49:30;42.90;;;15.65;;
36663;SDS011;53333;51.976;20.144;2024-03-23T13:54:39;18.48;;;9.52;;
36663;SDS011;53333;51.976;20.144;2024-03-23T13:57:16;53.00;;;13.75;;
36663;SDS011;53333;51.976;20.144;2024-03-23T13:59:51;24.08;;;9.38;;
36663;SDS011;53333;51.976;20.144;2024-03-23T14:02:24;19.20;;;10.65;;
36663;SDS011;53333;51.976;20.144;2024-03-23T14:04:58;18.65;;;10.73;;
36663;SDS011;53333;51.976;20.144;2024-03-23T14:07:29;17.77;;;12.00;;
36663;SDS011;53333;51.976;20.144;2024-03-23T14:10:02;21.55;;;13.10;;
36663;SDS011;53333;51.976;20.144;2024-03-23T14:12:34;19.83;;;12.15;;
36663;SDS011;53333;51.976;20.144;2024-03-23T14:15:08;18.70;;;11.32;;
36663;SDS011;53333;51.976;20.144;2024-03-23T14:17:39;25.88;;;12.30;;
36663;SDS011;53333;51.976;20.144;2024-03-23T14:20:13;22.98;;;12.57;;
36663;SDS011;53333;51.976;20.144;2024-03-23T14:22:44;16.50;;;10.23;;
36663;SDS011;53333;51.976;20.144;2024-03-23T14:25:15;17.45;;;11.05;;
36663;SDS011;53333;51.976;20.144;2024-03-23T14:27:46;15.23;;;9.30;;
36663;SDS011;53333;51.976;20.144;2024-03-23T14:30:18;12.55;;;8.32;;
36663;SDS011;53333;51.976;20.144;2024-03-23T14:32:49;19.70;;;10.38;;
36663;SDS011;53333;51.976;20.144;2024-03-23T14:35:24;24.35;;;11.43;;
36663;SDS011;53333;51.976;20.144;2024-03-23T14:37:58;23.20;;;12.13;;
36663;SDS011;53333;51.976;20.144;2024-03-23T14:40:31;20.95;;;12.77;;
36663;SDS011;53333;51.976;20.144;2024-03-23T14:43:02;23.00;;;13.48;;
36663;SDS011;53333;51.976;20.144;2024-03-23T14:45:35;29.08;;;14.27;;
36663;SDS011;53333;51.976;20.144;2024-03-23T14:48:07;24.13;;;15.98;;
36663;SDS011;53333;51.976;20.144;2024-03-23T14:50:41;26.65;;;17.60;;
36663;SDS011;53333;51.976;20.144;2024-03-23T14:53:12;23.45;;;15.13;;
36663;SDS011;53333;51.976;20.144;2024-03-23T14:55:50;31.50;;;21.30;;
36663;SDS011;53333;51.976;20.144;2024-03-23T14:58:20;34.22;;;21.42;;
36663;SDS011;53333;51.976;20.144;2024-03-23T15:00:53;20.67;;;14.73;;
36663;SDS011;53333;51.976;20.144;2024-03-23T15:03:30;20.58;;;14.50;;
36663;SDS011;53333;51.976;20.144;2024-03-23T15:06:03;19.35;;;13.77;;
36663;SDS011;53333;51.976;20.144;2024-03-23T15:08:34;19.40;;;12.30;;
36663;SDS011;53333;51.976;20.144;2024-03-23T15:11:09;22.17;;;15.15;;
36663;SDS011;53333;51.976;20.144;2024-03-23T15:13:40;26.10;;;16.77;;
36663;SDS011;53333;51.976;20.144;2024-03-23T15:16:16;18.75;;;12.30;;
36663;SDS011;53333;51.976;20.144;2024-03-23T15:18:48;19.20;;;12.35;;
36663;SDS011;53333;51.976;20.144;2024-03-23T15:21:21;18.67;;;11.48;;
36663;SDS011;53333;51.976;20.144;2024-03-23T15:23:52;18.10;;;11.38;;
36663;SDS011;53333;51.976;20.144;2024-03-23T15:26:24;20.10;;;12.82;;
36663;SDS011;53333;51.976;20.144;2024-03-23T15:28:54;25.33;;;13.20;;
36663;SDS011;53333;51.976;20.144;2024-03-23T15:31:40;23.08;;;13.02;;
36663;SDS011;53333;51.976;20.144;2024-03-23T15:34:11;21.80;;;12.15;;
36663;SDS011;53333;51.976;20.144;2024-03-23T15:36:44;16.50;;;11.48;;
36663;SDS011;53333;51.976;20.144;2024-03-23T15:39:15;17.30;;;10.70;;
36663;SDS011;53333;51.976;20.144;2024-03-23T15:41:48;12.95;;;9.02;;
36663;SDS011;53333;51.976;20.144;2024-03-23T15:44:18;15.65;;;10.25;;
36663;SDS011;53333;51.976;20.144;2024-03-23T15:46:51;16.17;;;10.68;;
36663;SDS011;53333;51.976;20.144;2024-03-23T15:49:22;17.58;;;11.60;;
36663;SDS011;53333;51.976;20.144;2024-03-23T15:51:55;23.20;;;12.18;;
36663;SDS011;53333;51.976;20.144;2024-03-23T15:54:25;21.30;;;11.20;;
36663;SDS011;53333;51.976;20.144;2024-03-23T15:56:57;19.65;;;12.13;;